Time;durP1;ratioP1;P1;durP2;ratioP2;P2;SDS_P1;SDS_P2;PMS_P1;PMS_P2;Temp;Humidity;BMP_temperature;BMP_pressure;BME280_temperature;BME280_humidity;BME280_pressure;Samples;Min_cycle;Max_cycle;Signal;HPM_P1;HPM_P2
2023/03/18 00:00:33;;;;;;;1.40;1.30;;;;;;;7.18;100.00;99284.66;4992343;28;20113;-80
2023/03/18 00:02:58;;;;;;;3.38;1.75;;;;;;;7.21;100.00;99285.09;4992047;28;20420;-80
2023/03/18 00:05:24;;;;;;;1.95;1.83;;;;;;;7.31;100.00;99286.66;4976359;28;20030;-82
2023/03/18 00:07:50;;;;;;;3.28;1.92;;;;;;;7.32;100.00;99294.47;4993712;28;20030;-81
2023/03/18 00:10:17;;;;;;;6.03;2.10;;;;;;;7.35;100.00;99296.75;4994720;28;20032;-80
2023/03/18 00:12:43;;;;;;;1.88;1.67;;;;;;;7.34;100.00;99307.66;4964227;28;20101;-80
2023/03/18 00:15:11;;;;;;;1.58;1.48;;;;;;;7.26;100.00;99298.72;4979769;28;20035;-79
2023/03/18 00:17:38;;;;;;;1.33;1.25;;;;;;;7.42;100.00;99313.69;4979268;28;20097;-80
2023/03/18 00:20:05;;;;;;;0.43;0.43;;;;;;;7.49;100.00;99311.91;4996094;28;20030;-80
2023/03/18 00:22:36;;;;;;;8.07;1.50;;;;;;;7.66;100.00;99325.03;4963588;28;20113;-80
2023/03/18 00:25:03;;;;;;;12.48;1.48;;;;;;;7.71;100.00;99323.44;4963462;28;20031;-81
2023/03/18 00:27:29;;;;;;;1.33;1.23;;;;;;;7.70;100.00;99320.97;4979770;28;20116;-82
2023/03/18 00:29:56;;;;;;;3.95;1.63;;;;;;;7.69;100.00;99319.28;4963098;28;20469;-80
2023/03/18 00:32:24;;;;;;;2.88;1.98;;;;;;;7.78;100.00;99328.00;4996039;28;20035;-81
2023/03/18 00:34:49;;;;;;;1.63;1.17;;;;;;;7.82;100.00;99335.44;4979638;28;20031;-81
2023/03/18 00:37:19;;;;;;;3.75;1.80;;;;;;;7.84;100.00;99335.28;4979023;28;20041;-83
2023/03/18 00:39:45;;;;;;;4.05;2.97;;;;;;;7.88;100.00;99340.03;4996910;28;20042;-83
2023/03/18 00:42:12;;;;;;;12.38;6.53;;;;;;;7.93;100.00;99340.28;4979400;28;20072;-81
2023/03/18 00:44:38;;;;;;;5.53;3.90;;;;;;;7.96;100.00;99347.09;4995538;28;20369;-81
2023/03/18 00:47:05;;;;;;;8.07;4.80;;;;;;;7.97;100.00;99337.25;4995179;28;20508;-81
2023/03/18 00:49:33;;;;;;;7.10;3.78;;;;;;;7.93;100.00;99326.06;4996206;28;20113;-81
2023/03/18 00:51:59;;;;;;;4.43;4.00;;;;;;;8.02;100.00;99346.34;4996598;28;20045;-81
2023/03/18 00:54:25;;;;;;;7.15;4.13;;;;;;;8.08;100.00;99352.75;4979435;28;20034;-81
2023/03/18 00:56:51;;;;;;;12.23;4.22;;;;;;;8.12;100.00;99354.88;4978961;28;20042;-81
2023/03/18 00:59:17;;;;;;;4.32;2.70;;;;;;;8.09;100.00;99341.84;4995393;28;20026;-81
2023/03/18 01:01:43;;;;;;;6.60;3.28;;;;;;;8.24;100.00;99359.69;4996265;28;20034;-80
2023/03/18 01:04:09;;;;;;;5.40;2.53;;;;;;;8.30;100.00;99370.41;4994958;28;20039;-81
2023/03/18 01:06:36;;;;;;;9.07;2.30;;;;;;;8.32;100.00;99371.06;4963293;28;20034;-80
2023/03/18 01:09:03;;;;;;;3.55;2.28;;;;;;;8.40;100.00;99377.34;4994833;28;20392;-80
2023/03/18 01:11:30;;;;;;;2.20;2.00;;;;;;;8.36;100.00;99371.50;4979331;28;20081;-80
2023/03/18 01:13:56;;;;;;;5.30;2.92;;;;;;;8.45;100.00;99388.28;4978861;28;20026;-81
2023/03/18 01:16:22;;;;;;;7.38;4.07;;;;;;;8.49;100.00;99381.50;4994897;28;20026;-81
2023/03/18 01:18:49;;;;;;;6.55;3.67;;;;;;;8.52;100.00;99390.00;4995056;28;20030;-80
2023/03/18 01:21:16;;;;;;;8.82;3.85;;;;;;;8.45;100.00;99367.69;4993599;28;20037;-81
2023/03/18 01:23:43;;;;;;;7.95;2.78;;;;;;;8.56;100.00;99391.25;4978817;28;20436;-80
2023/03/18 01:26:09;;;;;;;8.40;4.07;;;;;;;8.63;100.00;99396.66;4978483;28;20034;-81
2023/03/18 01:28:36;;;;;;;9.65;3.33;;;;;;;8.66;100.00;99396.25;4994817;28;20054;-81
2023/03/18 01:31:02;;;;;;;8.63;4.15;;;;;;;8.66;100.00;99396.25;4978803;28;20042;-81
2023/03/18 01:33:28;;;;;;;12.80;4.32;;;;;;;8.63;100.00;99396.66;4962253;28;20116;-80
2023/03/18 01:35:56;;;;;;;6.38;3.75;;;;;;;8.69;100.00;99406.56;4994813;28;20089;-81
2023/03/18 01:38:24;;;;;;;8.15;4.28;;;;;;;8.69;100.00;99405.75;4978178;28;20031;-80
2023/03/18 01:40:53;;;;;;;8.57;3.70;;;;;;;8.70;100.00;99418.13;4994091;28;20381;-80
2023/03/18 01:43:27;;;;;;;7.75;3.47;;;;;;;8.70;100.00;99413.59;4962938;28;20030;-80
2023/03/18 01:45:57;;;;;;;10.30;4.57;;;;;;;8.74;100.00;99420.22;4961917;28;20366;-80
2023/03/18 01:48:26;;;;;;;8.48;3.45;;;;;;;8.75;100.00;99427.22;4978548;28;20046;-81
2023/03/18 01:51:02;;;;;;;8.07;4.40;;;;;;;8.76;100.00;99420.03;4962148;28;20465;-81
2023/03/18 01:53:34;;;;;;;11.18;4.93;;;;;;;8.75;100.00;99421.88;4962326;28;20030;-81
2023/03/18 01:56:01;;;;;;;11.13;4.03;;;;;;;8.70;100.00;99413.59;4993806;28;20070;-80
2023/03/18 01:58:33;;;;;;;7.78;4.30;;;;;;;8.76;100.00;99423.53;4977762;28;20374;-81
2023/03/18 02:01:02;;;;;;;8.90;3.92;;;;;;;8.77;100.00;99430.53;4978392;28;20042;-81
2023/03/18 02:03:28;;;;;;;4.07;2.40;;;;;;;8.75;100.00;99429.91;4993613;28;20061;-81
2023/03/18 02:05:54;;;;;;;7.40;3.88;;;;;;;8.75;100.00;99434.44;4961961;28;20065;-80
2023/03/18 02:08:20;;;;;;;7.22;2.50;;;;;;;8.70;100.00;99423.47;4946113;28;20057;-80
2023/03/18 02:10:47;;;;;;;8.77;2.00;;;;;;;8.71;100.00;99428.66;4994830;28;20074;-80
2023/03/18 02:13:14;;;;;;;4.32;1.95;;;;;;;8.72;100.00;99437.50;4993736;28;20030;-80
2023/03/18 02:15:48;;;;;;;4.07;2.45;;;;;;;8.67;100.00;99429.22;4977770;28;20434;-81
2023/03/18 02:18:22;;;;;;;7.25;3.33;;;;;;;8.72;100.00;99442.88;4976962;28;20117;-81
2023/03/18 02:21:11;;;;;;;2.30;1.48;;;;;;;8.58;100.00;99421.34;4961892;28;20053;-82
2023/03/18 02:23:48;;;;;;;2.85;1.48;;;;;;;8.69;100.00;99436.06;4994106;28;20054;-81
2023/03/18 02:26:42;;;;;;;0.93;0.93;;;;;;;8.60;100.00;99423.84;4993383;28;20456;-81
2023/03/18 02:29:10;;;;;;;0.60;0.60;;;;;;;8.67;100.00;99437.28;4993695;28;20088;-81
2023/03/18 02:31:36;;;;;;;0.35;0.35;;;;;;;8.63;100.00;99428.00;4961679;28;20042;-80
2023/03/18 02:34:01;;;;;;;0.40;0.40;;;;;;;8.62;100.00;99420.94;4976305;28;20044;-81
2023/03/18 02:36:29;;;;;;;0.40;0.40;;;;;;;8.65;100.00;99436.63;4977308;28;20045;-81
2023/03/18 02:38:56;;;;;;;0.40;0.40;;;;;;;8.69;100.00;99444.09;4961526;28;20030;-80
2023/03/18 02:41:25;;;;;;;0.30;0.30;;;;;;;8.72;100.00;99440.19;4977218;28;20030;-82
2023/03/18 02:43:52;;;;;;;0.40;0.40;;;;;;;8.71;100.00;99436.69;4993123;28;20041;-81
2023/03/18 02:46:31;;;;;;;0.40;0.40;;;;;;;8.66;100.00;99422.22;4961087;28;20038;-82
2023/03/18 02:49:03;;;;;;;0.40;0.40;;;;;;;8.73;100.00;99448.06;4993857;28;20452;-81
2023/03/18 02:51:29;;;;;;;0.40;0.40;;;;;;;8.74;100.00;99441.66;4993544;28;20164;-81
2023/03/18 02:54:05;;;;;;;0.40;0.40;;;;;;;8.79;100.00;99441.06;4994165;28;20113;-82
2023/03/18 02:56:31;;;;;;;0.40;0.40;;;;;;;8.83;100.00;99444.19;4960992;28;20043;-81
2023/03/18 02:58:57;;;;;;;0.40;0.40;;;;;;;8.86;100.00;99449.16;4992930;28;20429;-81
2023/03/18 03:01:23;;;;;;;0.40;0.40;;;;;;;8.84;100.00;99441.31;4977014;28;20165;-82
2023/03/18 03:03:50;;;;;;;0.30;0.30;;;;;;;8.86;100.00;99454.50;4993576;28;20138;-82
2023/03/18 03:06:16;;;;;;;0.40;0.40;;;;;;;8.82;100.00;99446.03;4977140;28;20034;-82
2023/03/18 03:08:43;;;;;;;0.40;0.40;;;;;;;8.83;100.00;99446.84;4960977;28;20030;-81
2023/03/18 03:11:10;;;;;;;0.40;0.40;;;;;;;8.86;100.00;99458.00;4992668;28;20031;-81
2023/03/18 03:13:38;;;;;;;0.40;0.40;;;;;;;8.87;100.00;99454.31;4977367;28;20038;-82
2023/03/18 03:16:04;;;;;;;0.40;0.40;;;;;;;8.85;100.00;99453.69;4960764;28;20381;-81
2023/03/18 03:18:29;;;;;;;0.40;0.40;;;;;;;8.79;100.00;99447.25;4993927;28;20026;-82
2023/03/18 03:20:55;;;;;;;0.88;0.88;;;;;;;8.88;100.00;99463.19;4992879;28;20035;-81
2023/03/18 03:23:21;;;;;;;0.30;0.30;;;;;;;8.88;100.00;99466.69;4976390;28;20032;-81
2023/03/18 03:25:47;;;;;;;0.40;0.40;;;;;;;8.86;100.00;99460.69;4992641;28;20397;-82
2023/03/18 03:28:13;;;;;;;0.40;0.40;;;;;;;8.89;100.00;99464.81;4992935;28;20117;-81
2023/03/18 03:30:39;;;;;;;0.40;0.40;;;;;;;8.84;100.00;99446.69;4992767;28;20037;-82
2023/03/18 03:33:05;;;;;;;0.40;0.40;;;;;;;8.90;100.00;99466.50;4992814;28;20042;-81
2023/03/18 03:35:31;;;;;;;0.40;0.40;;;;;;;8.83;100.00;99455.72;4976719;28;20524;-81
2023/03/18 03:37:57;;;;;;;0.38;0.38;;;;;;;8.87;100.00;99474.94;4960673;28;20034;-82
2023/03/18 03:40:23;;;;;;;0.50;0.50;;;;;;;8.85;100.00;99466.25;4992884;28;20038;-81
2023/03/18 03:42:50;;;;;;;0.40;0.40;;;;;;;8.90;100.00;99471.88;4992396;28;20077;-81
2023/03/18 03:45:18;;;;;;;0.32;0.32;;;;;;;8.86;100.00;99468.72;4993789;28;20034;-81
2023/03/18 03:47:45;;;;;;;0.35;0.35;;;;;;;8.74;100.00;99451.56;4980858;28;20073;-82
2023/03/18 03:50:13;;;;;;;0.40;0.40;;;;;;;8.91;100.00;99481.56;4996067;28;20386;-82
2023/03/18 03:52:39;;;;;;;0.40;0.40;;;;;;;8.91;100.00;99481.56;4980120;28;20456;-82
2023/03/18 03:55:06;;;;;;;0.32;0.32;;;;;;;8.90;100.00;99482.59;4980379;28;20122;-82
2023/03/18 03:57:33;;;;;;;0.40;0.40;;;;;;;8.89;100.00;99486.28;4948641;28;20066;-81
2023/03/18 03:59:58;;;;;;;0.32;0.32;;;;;;;8.87;100.00;99491.84;4995808;28;20034;-82
2023/03/18 04:02:26;;;;;;;0.40;0.40;;;;;;;8.86;100.00;99484.00;4964185;28;20030;-81
2023/03/18 04:04:52;;;;;;;0.40;0.40;;;;;;;8.89;100.00;99491.63;4997699;28;20058;-82
2023/03/18 04:07:18;;;;;;;0.40;0.40;;;;;;;8.89;100.00;99497.00;4979956;28;20069;-81
2023/03/18 04:09:44;;;;;;;0.40;0.40;;;;;;;8.85;100.00;99485.03;4996103;28;20026;-81
2023/03/18 04:12:10;;;;;;;0.40;0.40;;;;;;;8.88;100.00;99490.00;4979952;28;20049;-81
2023/03/18 04:14:36;;;;;;;0.40;0.40;;;;;;;8.88;100.00;99495.34;4995994;28;20026;-82
2023/03/18 04:17:02;;;;;;;0.40;0.40;;;;;;;8.89;100.00;99500.53;4980209;28;20487;-82
2023/03/18 04:19:28;;;;;;;0.40;0.40;;;;;;;8.87;100.00;99499.06;4995473;28;20108;-81
2023/03/18 04:21:55;;;;;;;0.40;0.40;;;;;;;8.80;100.00;99494.47;4979581;28;20030;-82
2023/03/18 04:24:21;;;;;;;0.40;0.40;;;;;;;8.92;100.00;99512.72;4995678;28;20126;-81
2023/03/18 04:26:48;;;;;;;0.40;0.40;;;;;;;8.88;100.00;99512.25;4979808;28;20530;-82
2023/03/18 04:29:13;;;;;;;0.40;0.40;;;;;;;8.86;100.00;99508.13;4995969;28;20030;-81
2023/03/18 04:31:39;;;;;;;0.40;0.40;;;;;;;8.90;100.00;99515.56;4995298;28;20492;-81
2023/03/18 04:34:05;;;;;;;0.40;0.40;;;;;;;8.91;100.00;99521.75;4979873;28;20480;-82
2023/03/18 04:36:33;;;;;;;0.40;0.40;;;;;;;8.89;100.00;99521.13;4979102;28;20448;-82
2023/03/18 04:38:59;;;;;;;0.40;0.40;;;;;;;8.91;100.00;99533.31;4995588;28;20043;-81
2023/03/18 04:41:24;;;;;;;0.40;0.40;;;;;;;8.90;100.00;99528.16;4995979;28;20026;-83
2023/03/18 04:43:50;;;;;;;0.40;0.40;;;;;;;8.92;100.00;99539.53;4979208;28;20034;-81
2023/03/18 04:46:16;;;;;;;0.35;0.35;;;;;;;8.89;100.00;99535.38;4979436;28;20180;-81
2023/03/18 04:48:42;;;;;;;0.40;0.40;;;;;;;8.91;100.00;99538.66;4979172;28;20473;-81
2023/03/18 04:51:08;;;;;;;0.40;0.40;;;;;;;8.90;100.00;99541.56;4995403;28;20057;-81
2023/03/18 04:53:34;;;;;;;0.40;0.40;;;;;;;8.88;100.00;99538.25;4979537;28;20035;-81
2023/03/18 04:56:00;;;;;;;0.40;0.40;;;;;;;8.85;100.00;99539.47;4994446;28;20038;-82
2023/03/18 04:58:26;;;;;;;0.40;0.40;;;;;;;8.77;100.00;99537.75;4995969;28;20069;-82
2023/03/18 05:00:52;;;;;;;0.40;0.40;;;;;;;8.82;100.00;99545.22;4978999;28;20050;-82
2023/03/18 05:03:18;;;;;;;0.40;0.40;;;;;;;8.87;100.00;99552.69;4994913;28;20026;-82
2023/03/18 05:05:44;;;;;;;0.40;0.40;;;;;;;8.84;100.00;99547.69;4962461;28;20035;-83
2023/03/18 05:08:10;;;;;;;0.40;0.40;;;;;;;8.89;100.00;99561.31;4979073;28;20034;-82
2023/03/18 05:10:35;;;;;;;0.40;0.40;;;;;;;8.93;100.00;99571.47;4979159;28;20034;-82
2023/03/18 05:13:02;;;;;;;0.50;0.50;;;;;;;8.89;100.00;99561.31;4978204;28;20465;-82
2023/03/18 05:15:28;;;;;;;0.40;0.40;;;;;;;8.92;100.00;99571.69;4995023;28;20465;-80
2023/03/18 05:17:54;;;;;;;0.40;0.40;;;;;;;8.94;100.00;99569.63;4962721;28;20042;-82
2023/03/18 05:20:20;;;;;;;0.40;0.40;;;;;;;8.95;100.00;99568.63;4978563;28;20429;-81
2023/03/18 05:22:46;;;;;;;0.38;0.38;;;;;;;8.88;100.00;99555.16;4994850;28;20031;-81
2023/03/18 05:25:12;;;;;;;0.40;0.40;;;;;;;8.94;100.00;99566.94;4978454;28;20366;-82
2023/03/18 05:27:38;;;;;;;0.40;0.40;;;;;;;8.93;100.00;99568.81;4962608;28;20492;-81
2023/03/18 05:30:05;;;;;;;0.40;0.40;;;;;;;8.95;100.00;99576.66;4994547;28;20496;-83
2023/03/18 05:32:31;;;;;;;0.40;0.40;;;;;;;8.95;100.00;99573.97;4962351;28;20112;-83
2023/03/18 05:34:56;;;;;;;0.40;0.40;;;;;;;8.96;100.00;99578.31;4994637;28;20465;-81
2023/03/18 05:37:22;;;;;;;0.30;0.30;;;;;;;8.96;100.00;99578.31;4978597;28;20117;-81
2023/03/18 05:39:48;;;;;;;0.40;0.40;;;;;;;8.98;100.00;99585.13;4978321;28;20042;-81
2023/03/18 05:42:14;;;;;;;0.40;0.40;;;;;;;9.00;100.00;99595.69;4978428;28;20026;-81
2023/03/18 05:44:41;;;;;;;0.40;0.40;;;;;;;8.99;100.00;99602.88;4962536;28;20030;-81
2023/03/18 05:47:08;;;;;;;0.40;0.40;;;;;;;9.01;100.00;99603.50;4978244;28;20065;-82
2023/03/18 05:49:34;;;;;;;0.40;0.40;;;;;;;8.95;100.00;99603.47;4994432;28;20058;-82
2023/03/18 05:52:00;;;;;;;0.40;0.40;;;;;;;8.92;100.00;99603.88;4994323;28;20502;-81
2023/03/18 05:54:26;;;;;;;0.40;0.40;;;;;;;8.97;100.00;99612.13;4977867;28;20030;-82
2023/03/18 05:56:51;;;;;;;0.38;0.38;;;;;;;8.95;100.00;99622.22;4994155;28;20038;-81
2023/03/18 05:59:18;;;;;;;0.30;0.30;;;;;;;8.88;100.00;99613.28;4994323;28;20026;-81
2023/03/18 06:01:43;;;;;;;0.32;0.32;;;;;;;8.94;100.00;99618.69;4977257;28;20030;-81
2023/03/18 06:04:09;;;;;;;0.40;0.40;;;;;;;8.97;100.00;99622.84;4978139;28;20380;-81
2023/03/18 06:06:39;;;;;;;0.30;0.30;;;;;;;8.95;100.00;99624.91;4977956;28;20042;-82
2023/03/18 06:09:06;;;;;;;0.40;0.40;;;;;;;8.96;100.00;99631.94;4978481;28;20408;-81
2023/03/18 06:11:32;;;;;;;0.30;0.30;;;;;;;8.99;100.00;99631.53;4993670;28;20509;-81
2023/03/18 06:13:58;;;;;;;0.40;0.40;;;;;;;8.99;100.00;99644.94;4993880;28;20152;-81
2023/03/18 06:16:24;;;;;;;0.30;0.30;;;;;;;8.99;100.00;99648.44;4993933;28;20026;-81
2023/03/18 06:18:50;;;;;;;0.40;0.40;;;;;;;8.97;100.00;99637.09;4977590;28;20148;-80
2023/03/18 06:21:16;;;;;;;0.40;0.40;;;;;;;9.00;100.00;99647.44;4993121;28;20023;-81
2023/03/18 06:23:41;;;;;;;0.40;0.40;;;;;;;9.01;100.00;99651.78;4993783;28;20026;-81
2023/03/18 06:26:07;;;;;;;0.40;0.40;;;;;;;9.02;100.00;99653.44;4995070;28;20536;-81
2023/03/18 06:28:34;;;;;;;0.40;0.40;;;;;;;8.99;100.00;99659.16;4993753;28;20049;-81
2023/03/18 06:31:00;;;;;;;0.40;0.40;;;;;;;8.99;100.00;99658.34;4994255;28;20034;-81
2023/03/18 06:33:26;;;;;;;0.40;0.40;;;;;;;9.00;100.00;99670.75;4994654;28;20041;-80
2023/03/18 06:35:53;;;;;;;0.30;0.30;;;;;;;9.02;100.00;99666.84;4993484;28;20078;-81
2023/03/18 06:38:20;;;;;;;0.30;0.30;;;;;;;9.10;100.00;99665.03;4993672;28;20042;-81
2023/03/18 06:40:46;;;;;;;0.40;0.40;;;;;;;8.99;100.00;99669.91;4961773;28;20073;-81
2023/03/18 06:43:12;;;;;;;0.40;0.40;;;;;;;8.97;100.00;99679.16;4992788;28;20096;-81
2023/03/18 06:45:39;;;;;;;0.40;0.40;;;;;;;8.93;100.00;99684.06;4961458;28;20038;-81
2023/03/18 06:48:05;;;;;;;0.40;0.40;;;;;;;8.92;100.00;99681.59;4992658;28;20031;-83
2023/03/18 06:50:32;;;;;;;0.50;0.50;;;;;;;9.01;100.00;99696.53;4993209;28;20030;-82
2023/03/18 06:52:58;;;;;;;0.40;0.40;;;;;;;8.96;100.00;99683.69;4961273;28;20108;-82
2023/03/18 06:55:25;;;;;;;0.35;0.35;;;;;;;9.06;100.00;99702.16;4960670;28;20481;-82
2023/03/18 06:57:51;;;;;;;0.40;0.40;;;;;;;9.10;100.00;99718.66;4993071;28;20089;-81
2023/03/18 07:00:18;;;;;;;0.50;0.50;;;;;;;9.08;100.00;99712.69;4992882;28;20026;-81
2023/03/18 07:02:44;;;;;;;0.40;0.40;;;;;;;9.12;100.00;99711.28;4960728;28;20062;-82
2023/03/18 07:05:11;;;;;;;0.40;0.40;;;;;;;9.08;100.00;99713.53;4993119;28;20065;-81
2023/03/18 07:07:38;;;;;;;0.40;0.40;;;;;;;9.10;100.00;99716.81;4976379;28;20038;-81
2023/03/18 07:10:06;;;;;;;0.30;0.30;;;;;;;9.14;100.00;99728.00;4961082;28;20038;-81
2023/03/18 07:12:32;;;;;;;0.30;0.30;;;;;;;9.14;100.00;99725.31;4976616;28;20117;-81
2023/03/18 07:14:57;;;;;;;0.40;0.40;;;;;;;9.16;100.00;99739.38;4976203;28;20105;-81
2023/03/18 07:17:23;;;;;;;0.40;0.40;;;;;;;9.16;100.00;99747.44;4976716;28;20022;-81
2023/03/18 07:19:49;;;;;;;0.40;0.40;;;;;;;9.18;100.00;99746.22;4963175;28;20149;-81
2023/03/18 07:22:18;;;;;;;0.40;0.40;;;;;;;9.22;100.00;99757.38;4982801;28;20085;-82
2023/03/18 07:24:44;;;;;;;0.40;0.40;;;;;;;9.25;100.00;99759.69;4983169;28;20027;-82
2023/03/18 07:27:12;;;;;;;0.40;0.40;;;;;;;9.27;100.00;99767.53;4982891;28;20041;-81
2023/03/18 07:29:38;;;;;;;0.40;0.40;;;;;;;9.31;100.00;99764.25;4983536;28;20030;-82
2023/03/18 07:32:04;;;;;;;0.40;0.40;;;;;;;9.35;100.00;99762.06;4983625;28;20049;-82
2023/03/18 07:34:30;;;;;;;0.30;0.30;;;;;;;9.35;100.00;99762.88;5000065;28;20058;-82
2023/03/18 07:36:56;;;;;;;0.40;0.40;;;;;;;9.34;100.00;99763.03;4999365;28;20116;-82
2023/03/18 07:39:22;;;;;;;0.30;0.30;;;;;;;9.33;100.00;99766.75;4999394;28;20034;-82
2023/03/18 07:41:48;;;;;;;0.40;0.40;;;;;;;9.34;100.00;99776.47;4999089;28;20469;-81
2023/03/18 07:44:14;;;;;;;0.40;0.40;;;;;;;9.30;100.00;99773.34;4983048;28;20458;-81
2023/03/18 07:46:40;;;;;;;0.40;0.40;;;;;;;9.36;100.00;99782.47;5000470;28;20038;-81
2023/03/18 07:49:06;;;;;;;0.40;0.40;;;;;;;9.40;100.00;99789.97;5000039;28;20036;-83
2023/03/18 07:51:31;;;;;;;0.40;0.40;;;;;;;9.45;100.00;99786.72;4998895;28;20413;-82
2023/03/18 07:53:57;;;;;;;0.40;0.40;;;;;;;9.60;100.00;99787.44;5000489;28;20137;-81
2023/03/18 07:56:23;;;;;;;0.40;0.40;;;;;;;9.64;100.00;99785.22;4966505;28;20555;-81
2023/03/18 07:58:50;;;;;;;0.35;0.35;;;;;;;9.72;100.00;99798.50;4966749;28;20054;-81
2023/03/18 08:01:18;;;;;;;0.35;0.35;;;;;;;9.71;100.00;99801.38;4983141;28;20469;-80
2023/03/18 08:03:45;;;;;;;0.40;0.40;;;;;;;9.67;100.00;99817.03;4983051;28;20476;-81
2023/03/18 08:06:12;;;;;;;0.40;0.40;;;;;;;9.66;100.00;99813.53;4999219;28;20062;-81
2023/03/18 08:08:39;;;;;;;0.40;0.40;;;;;;;9.76;100.00;99820.41;4966771;28;20536;-81
2023/03/18 08:11:05;;;;;;;0.40;0.40;;;;;;;9.86;100.00;99827.09;4999793;28;20030;-83
2023/03/18 08:13:31;;;;;;;0.40;0.40;;;;;;;9.92;100.00;99825.50;4999148;28;20468;-82
2023/03/18 08:15:57;;;;;;;0.40;0.40;;;;;;;9.97;100.00;99839.16;4983052;28;20030;-81
2023/03/18 08:18:23;;;;;;;0.40;0.40;;;;;;;9.96;100.00;99847.44;4998344;28;20035;-81
2023/03/18 08:20:48;;;;;;;0.73;0.73;;;;;;;9.96;100.00;99850.94;4982555;28;20390;-82
2023/03/18 08:23:15;;;;;;;0.35;0.35;;;;;;;9.96;100.00;99848.25;4998287;28;20026;-82
2023/03/18 08:25:41;;;;;;;0.43;0.43;;;;;;;9.94;100.00;99854.84;4982923;28;20045;-82
2023/03/18 08:28:07;;;;;;;0.50;0.50;;;;;;;9.87;100.00;99854.78;4966668;28;20063;-82
2023/03/18 08:30:33;;;;;;;0.30;0.30;;;;;;;9.81;100.00;99867.13;4997515;28;20054;-82
2023/03/18 08:33:04;;;;;;;3.28;1.33;;;;;;;9.80;100.00;99865.47;4979505;28;20046;-82
2023/03/18 08:35:30;;;;;;;0.73;0.73;;;;;;;9.58;100.00;99874.53;4963954;28;20041;-81
2023/03/18 08:37:55;;;;;;;0.52;0.52;;;;;;;9.83;100.00;99905.34;4995339;28;20030;-80
2023/03/18 08:40:21;;;;;;;0.57;0.57;;;;;;;9.63;100.00;99902.50;4996773;28;20034;-82
2023/03/18 08:42:47;;;;;;;0.50;0.50;;;;;;;9.54;100.00;99922.41;4963270;28;20034;-81
2023/03/18 08:45:14;;;;;;;0.50;0.50;;;;;;;9.41;100.00;99941.03;4995524;28;20030;-82
2023/03/18 08:47:40;;;;;;;0.60;0.60;;;;;;;9.31;100.00;99935.13;4978840;28;20044;-80
2023/03/18 08:50:07;;;;;;;0.50;0.50;;;;;;;9.22;100.00;99908.41;4995010;28;20026;-84
2023/03/18 08:52:34;;;;;;;0.40;0.40;;;;;;;9.15;100.00;99946.91;4963498;28;20073;-81
2023/03/18 08:55:00;;;;;;;0.40;0.40;;;;;;;9.02;100.00;99935.00;4979104;28;20507;-82
2023/03/18 08:57:26;;;;;;;0.50;0.50;;;;;;;9.01;100.00;99965.50;4963229;28;20042;-82
2023/03/18 08:59:52;;;;;;;0.50;0.50;;;;;;;8.89;100.00;99956.25;4995291;28;20026;-81
2023/03/18 09:02:19;;;;;;;0.43;0.43;;;;;;;8.87;100.00;99986.94;4978700;28;20191;-81
2023/03/18 09:04:46;;;;;;;0.40;0.40;;;;;;;8.77;100.00;99987.22;4996002;28;20100;-81
2023/03/18 09:07:13;;;;;;;0.40;0.40;;;;;;;8.68;100.00;99991.81;4995165;28;20040;-82
2023/03/18 09:09:40;;;;;;;0.40;0.40;;;;;;;8.61;100.00;100001.59;4995946;28;20033;-83
2023/03/18 09:12:06;;;;;;;2.92;0.60;;;;;;;8.54;100.00;99993.44;4994929;28;20022;-81
2023/03/18 09:14:33;;;;;;;0.50;0.50;;;;;;;8.74;100.00;100006.34;4994925;28;20073;-83
2023/03/18 09:16:59;;;;;;;0.82;0.40;;;;;;;8.74;100.00;100009.84;4978912;28;20535;-82
2023/03/18 09:19:26;;;;;;;0.55;0.55;;;;;;;8.65;100.00;100007.41;4979008;28;20133;-82
2023/03/18 09:21:51;;;;;;;0.50;0.50;;;;;;;8.40;100.00;99951.38;4962773;28;20034;-81
2023/03/18 09:24:17;;;;;;;1.85;0.50;;;;;;;8.48;100.00;100023.63;4978828;28;20092;-82
2023/03/18 09:26:43;;;;;;;0.50;0.50;;;;;;;8.54;100.00;100012.19;4994497;28;20070;-81
2023/03/18 09:29:09;;;;;;;0.40;0.40;;;;;;;8.68;100.00;100050.78;4978660;28;20113;-82
2023/03/18 09:31:36;;;;;;;0.50;0.50;;;;;;;8.76;100.00;100012.34;4994097;28;20457;-82
2023/03/18 09:34:02;;;;;;;0.40;0.40;;;;;;;9.07;100.00;100048.91;4962518;28;20042;-82
2023/03/18 09:36:27;;;;;;;0.57;0.57;;;;;;;9.15;100.00;100070.28;4994417;28;20027;-81
2023/03/18 09:38:53;;;;;;;1.17;0.57;;;;;;;8.89;100.00;100066.19;4994346;28;20030;-82
2023/03/18 09:41:31;;;;;;;1.52;0.60;;;;;;;8.89;100.00;100084.94;4978392;28;20038;-82
2023/03/18 09:44:07;;;;;;;0.50;0.50;;;;;;;8.91;100.00;100057.94;4994035;28;20030;-81
2023/03/18 09:46:54;;;;;;;0.50;0.50;;;;;;;9.21;100.00;100102.56;4978147;28;20030;-81
2023/03/18 09:49:47;;;;;;;0.50;0.50;;;;;;;9.31;100.00;100098.78;4995293;28;20023;-81
2023/03/18 09:52:30;;;;;;;0.40;0.40;;;;;;;9.27;100.00;100102.84;4993978;28;20392;-80
2023/03/18 09:55:19;;;;;;;0.40;0.40;;;;;;;9.12;100.00;100113.56;4976772;28;20121;-80
2023/03/18 09:57:47;;;;;;;1.65;0.60;;;;;;;9.00;100.00;100137.31;4948304;28;20090;-81
2023/03/18 10:00:36;;;;;;;0.50;0.50;;;;;;;8.94;100.00;100140.69;4977973;28;20030;-79
2023/03/18 10:03:10;;;;;;;0.40;0.40;;;;;;;9.04;100.00;100138.59;4993728;28;20036;-79
2023/03/18 10:05:45;;;;;;;0.40;0.40;;;;;;;9.09;100.00;100146.94;4977378;28;20084;-78
2023/03/18 10:08:19;;;;;;;0.52;0.52;;;;;;;8.97;100.00;100137.63;4994086;28;20088;-78
2023/03/18 10:10:46;;;;;;;0.50;0.50;;;;;;;9.05;100.00;100164.41;4993874;28;20030;-79
2023/03/18 10:13:27;;;;;;;0.50;0.50;;;;;;;9.19;100.00;100168.16;4977820;28;20125;-79
2023/03/18 10:15:55;;;;;;;0.40;0.40;;;;;;;9.43;100.00;100164.41;4993992;28;20033;-79
2023/03/18 10:18:29;;;;;;;1.30;0.60;;;;;;;9.53;100.00;100159.59;4993187;28;20118;-78
2023/03/18 10:21:23;;;;;;;0.50;0.50;;;;;;;10.01;100.00;100176.19;4977526;28;20346;-79
2023/03/18 10:24:15;;;;;;;0.50;0.50;;;;;;;10.75;100.00;100192.19;4993654;28;20123;-77
2023/03/18 10:26:56;;;;;;;0.63;0.63;;;;;;;12.08;100.00;100181.63;4977429;28;20030;-77
2023/03/18 10:29:39;;;;;;;0.60;0.60;;;;;;;13.37;100.00;100191.53;4946701;28;20073;-79
2023/03/18 10:32:21;;;;;;;0.60;0.60;;;;;;;14.38;100.00;100201.09;4993367;28;20038;-79
2023/03/18 10:34:57;;;;;;;0.82;0.80;;;;;;;15.59;95.52;100192.81;4961514;28;20477;-81
2023/03/18 10:37:38;;;;;;;0.98;0.70;;;;;;;14.08;100.00;100188.91;4977320;28;20125;-78
2023/03/18 10:40:15;;;;;;;0.73;0.70;;;;;;;13.88;100.00;100207.06;4961072;28;20096;-79
2023/03/18 10:42:43;;;;;;;0.50;0.50;;;;;;;13.24;100.00;100192.31;4977021;28;20068;-78
2023/03/18 10:45:29;;;;;;;0.73;0.73;;;;;;;14.26;100.00;100209.88;4993406;28;20485;-83
2023/03/18 10:47:55;;;;;;;0.98;0.98;;;;;;;16.84;91.17;100220.66;4961181;28;20033;-77
2023/03/18 10:50:44;;;;;;;0.90;0.90;;;;;;;19.46;79.34;100217.16;4992966;28;20030;-77
2023/03/18 10:53:10;;;;;;;4.75;1.10;;;;;;;20.41;71.80;100218.00;4976662;28;20030;-75
2023/03/18 10:55:42;;;;;;;2.35;0.70;;;;;;;19.89;75.56;100254.66;4975671;28;20034;-78
2023/03/18 10:58:15;;;;;;;0.90;0.70;;;;;;;16.94;83.42;100239.94;4960705;28;20038;-76
2023/03/18 11:00:41;;;;;;;0.90;0.90;;;;;;;15.10;93.32;100248.59;4960412;28;20537;-81
2023/03/18 11:03:18;;;;;;;2.90;0.70;;;;;;;14.43;98.28;100242.69;4993296;28;20026;-79
2023/03/18 11:05:44;;;;;;;1.75;0.80;;;;;;;14.24;100.00;100257.09;4992274;28;20030;-76
2023/03/18 11:08:33;;;;;;;2.90;0.60;;;;;;;13.63;100.00;100260.94;4960643;28;20437;-80
2023/03/18 11:11:27;;;;;;;1.55;0.77;;;;;;;13.33;100.00;100260.47;4992446;28;20034;-80
2023/03/18 11:14:00;;;;;;;6.75;1.30;;;;;;;13.78;100.00;100271.50;4976465;28;20108;-75
2023/03/18 11:16:37;;;;;;;6.55;1.42;;;;;;;15.17;93.80;100279.19;4976452;28;20386;-76
2023/03/18 11:19:33;;;;;;;2.97;1.38;;;;;;;17.23;87.76;100275.50;4991787;28;20104;-80
2023/03/18 11:22:12;;;;;;;8.55;1.63;;;;;;;17.14;87.75;100289.38;4991585;28;20041;-78
2023/03/18 11:24:41;;;;;;;5.75;1.60;;;;;;;15.87;91.37;100289.13;4976733;28;20034;-77
2023/03/18 11:27:24;;;;;;;5.93;1.20;;;;;;;15.01;97.84;100284.31;4992845;28;20057;-77
2023/03/18 11:29:56;;;;;;;6.32;2.08;;;;;;;14.08;100.00;100288.94;4961166;28;20034;-77
2023/03/18 11:32:27;;;;;;;9.98;2.45;;;;;;;13.24;100.00;100292.22;4977175;28;20044;-78
2023/03/18 11:34:57;;;;;;;7.13;2.10;;;;;;;12.81;100.00;100299.75;4960821;28;20034;-77
2023/03/18 11:37:29;;;;;;;7.10;1.85;;;;;;;12.82;100.00;100293.34;4992783;28;20034;-77